sensor_id;sensor_type;location;lat;lon;timestamp;P1;durP1;ratioP1;P2;durP2;ratioP2
5273;SDS011;56254;50.956;7.010;2022-07-23T00:00:17;30.23;;;17.00;;
5273;SDS011;56254;50.956;7.010;2022-07-23T00:02:43;38.30;;;17.93;;
5273;SDS011;56254;50.956;7.010;2022-07-23T00:05:09;29.00;;;17.70;;
5273;SDS011;56254;50.956;7.010;2022-07-23T00:07:35;33.63;;;18.07;;
5273;SDS011;56254;50.956;7.010;2022-07-23T00:10:00;32.70;;;19.80;;
5273;SDS011;56254;50.956;7.010;2022-07-23T00:12:26;31.20;;;17.33;;
5273;SDS011;56254;50.956;7.010;2022-07-23T00:14:52;40.33;;;19.07;;
5273;SDS011;56254;50.956;7.010;2022-07-23T00:17:18;33.33;;;17.23;;
5273;SDS011;56254;50.956;7.010;2022-07-23T00:19:43;30.00;;;17.57;;
5273;SDS011;56254;50.956;7.010;2022-07-23T00:22:09;28.43;;;16.90;;
5273;SDS011;56254;50.956;7.010;2022-07-23T00:24:35;29.67;;;16.83;;
5273;SDS011;56254;50.956;7.010;2022-07-23T00:27:01;30.27;;;16.77;;
5273;SDS011;56254;50.956;7.010;2022-07-23T00:29:26;37.77;;;18.53;;
5273;SDS011;56254;50.956;7.010;2022-07-23T00:31:52;35.07;;;19.43;;
5273;SDS011;56254;50.956;7.010;2022-07-23T00:34:18;39.93;;;21.00;;
5273;SDS011;56254;50.956;7.010;2022-07-23T00:36:44;47.50;;;19.33;;
5273;SDS011;56254;50.956;7.010;2022-07-23T00:39:10;31.63;;;19.70;;
5273;SDS011;56254;50.956;7.010;2022-07-23T00:41:35;45.47;;;21.70;;
5273;SDS011;56254;50.956;7.010;2022-07-23T00:47:02;37.93;;;18.57;;
5273;SDS011;56254;50.956;7.010;2022-07-23T00:49:31;32.53;;;19.03;;
5273;SDS011;56254;50.956;7.010;2022-07-23T00:51:57;35.07;;;18.90;;
5273;SDS011;56254;50.956;7.010;2022-07-23T00:54:26;38.83;;;20.60;;
5273;SDS011;56254;50.956;7.010;2022-07-23T00:56:52;32.50;;;19.87;;
5273;SDS011;56254;50.956;7.010;2022-07-23T00:59:18;35.07;;;18.90;;
5273;SDS011;56254;50.956;7.010;2022-07-23T01:01:44;34.70;;;18.70;;
5273;SDS011;56254;50.956;7.010;2022-07-23T01:04:12;35.57;;;19.57;;
5273;SDS011;56254;50.956;7.010;2022-07-23T01:06:40;39.13;;;18.23;;
5273;SDS011;56254;50.956;7.010;2022-07-23T01:09:07;33.80;;;18.30;;
5273;SDS011;56254;50.956;7.010;2022-07-23T01:11:34;38.77;;;19.00;;
5273;SDS011;56254;50.956;7.010;2022-07-23T01:14:16;31.90;;;17.80;;
5273;SDS011;56254;50.956;7.010;2022-07-23T01:16:43;34.30;;;18.37;;
5273;SDS011;56254;50.956;7.010;2022-07-23T01:19:11;39.83;;;19.97;;
5273;SDS011;56254;50.956;7.010;2022-07-23T01:21:42;40.33;;;19.90;;
5273;SDS011;56254;50.956;7.010;2022-07-23T01:24:10;41.93;;;22.00;;
5273;SDS011;56254;50.956;7.010;2022-07-23T01:26:37;35.77;;;20.70;;
5273;SDS011;56254;50.956;7.010;2022-07-23T01:29:04;44.53;;;22.87;;
5273;SDS011;56254;50.956;7.010;2022-07-23T01:31:30;40.10;;;22.73;;
5273;SDS011;56254;50.956;7.010;2022-07-23T01:33:56;37.67;;;21.60;;
5273;SDS011;56254;50.956;7.010;2022-07-23T01:36:22;46.97;;;21.47;;
5273;SDS011;56254;50.956;7.010;2022-07-23T01:38:48;38.33;;;22.83;;
5273;SDS011;56254;50.956;7.010;2022-07-23T01:41:15;46.63;;;23.30;;
5273;SDS011;56254;50.956;7.010;2022-07-23T01:43:42;42.57;;;22.30;;
5273;SDS011;56254;50.956;7.010;2022-07-23T01:46:07;51.50;;;23.73;;
5273;SDS011;56254;50.956;7.010;2022-07-23T01:48:34;41.60;;;23.07;;
5273;SDS011;56254;50.956;7.010;2022-07-23T01:51:00;41.40;;;21.83;;
5273;SDS011;56254;50.956;7.010;2022-07-23T01:53:26;37.27;;;20.80;;
5273;SDS011;56254;50.956;7.010;2022-07-23T01:55:52;43.63;;;23.30;;
5273;SDS011;56254;50.956;7.010;2022-07-23T01:58:18;41.33;;;22.67;;
5273;SDS011;56254;50.956;7.010;2022-07-23T02:00:43;42.63;;;23.90;;
5273;SDS011;56254;50.956;7.010;2022-07-23T02:03:09;37.13;;;21.57;;
5273;SDS011;56254;50.956;7.010;2022-07-23T02:05:35;50.67;;;24.27;;
5273;SDS011;56254;50.956;7.010;2022-07-23T02:08:01;37.87;;;21.57;;
5273;SDS011;56254;50.956;7.010;2022-07-23T02:10:28;43.80;;;23.87;;
5273;SDS011;56254;50.956;7.010;2022-07-23T02:12:53;47.83;;;24.57;;
5273;SDS011;56254;50.956;7.010;2022-07-23T02:15:19;49.10;;;25.43;;
5273;SDS011;56254;50.956;7.010;2022-07-23T02:17:45;43.27;;;23.90;;
5273;SDS011;56254;50.956;7.010;2022-07-23T02:20:11;44.37;;;22.53;;
5273;SDS011;56254;50.956;7.010;2022-07-23T02:22:36;42.27;;;22.07;;
5273;SDS011;56254;50.956;7.010;2022-07-23T02:25:04;44.53;;;23.87;;
5273;SDS011;56254;50.956;7.010;2022-07-23T02:27:30;40.13;;;24.77;;
5273;SDS011;56254;50.956;7.010;2022-07-23T02:29:56;45.10;;;23.47;;
5273;SDS011;56254;50.956;7.010;2022-07-23T02:32:22;40.40;;;22.30;;
5273;SDS011;56254;50.956;7.010;2022-07-23T02:34:49;40.13;;;21.43;;
5273;SDS011;56254;50.956;7.010;2022-07-23T02:37:16;36.13;;;22.83;;
5273;SDS011;56254;50.956;7.010;2022-07-23T02:39:42;38.93;;;21.23;;
5273;SDS011;56254;50.956;7.010;2022-07-23T02:42:08;42.73;;;22.10;;
5273;SDS011;56254;50.956;7.010;2022-07-23T02:44:33;33.17;;;18.20;;
5273;SDS011;56254;50.956;7.010;2022-07-23T02:46:59;40.40;;;20.90;;
5273;SDS011;56254;50.956;7.010;2022-07-23T02:49:25;37.43;;;21.30;;
5273;SDS011;56254;50.956;7.010;2022-07-23T02:51:52;37.43;;;20.50;;
5273;SDS011;56254;50.956;7.010;2022-07-23T02:54:18;34.63;;;20.40;;
5273;SDS011;56254;50.956;7.010;2022-07-23T02:56:43;31.93;;;20.20;;
5273;SDS011;56254;50.956;7.010;2022-07-23T02:59:09;40.60;;;19.40;;
5273;SDS011;56254;50.956;7.010;2022-07-23T03:01:35;34.93;;;19.97;;
5273;SDS011;56254;50.956;7.010;2022-07-23T03:04:01;33.30;;;19.60;;
5273;SDS011;56254;50.956;7.010;2022-07-23T03:06:27;35.93;;;18.90;;
5273;SDS011;56254;50.956;7.010;2022-07-23T03:08:53;37.40;;;20.43;;
5273;SDS011;56254;50.956;7.010;2022-07-23T03:11:18;42.97;;;21.53;;
5273;SDS011;56254;50.956;7.010;2022-07-23T03:13:44;43.27;;;20.93;;
5273;SDS011;56254;50.956;7.010;2022-07-23T03:16:10;36.37;;;20.17;;
5273;SDS011;56254;50.956;7.010;2022-07-23T03:18:42;39.17;;;22.17;;
5273;SDS011;56254;50.956;7.010;2022-07-23T03:21:07;41.00;;;21.70;;
5273;SDS011;56254;50.956;7.010;2022-07-23T03:23:33;37.67;;;21.73;;
5273;SDS011;56254;50.956;7.010;2022-07-23T03:25:59;46.57;;;20.80;;
5273;SDS011;56254;50.956;7.010;2022-07-23T03:28:26;39.23;;;22.70;;
5273;SDS011;56254;50.956;7.010;2022-07-23T03:30:51;37.07;;;20.10;;
5273;SDS011;56254;50.956;7.010;2022-07-23T03:33:17;46.57;;;23.13;;
5273;SDS011;56254;50.956;7.010;2022-07-23T03:35:44;51.87;;;21.30;;
5273;SDS011;56254;50.956;7.010;2022-07-23T03:38:10;39.03;;;21.90;;
5273;SDS011;56254;50.956;7.010;2022-07-23T03:40:37;38.53;;;21.70;;
5273;SDS011;56254;50.956;7.010;2022-07-23T03:43:02;47.50;;;21.80;;
5273;SDS011;56254;50.956;7.010;2022-07-23T03:45:29;46.10;;;21.60;;
5273;SDS011;56254;50.956;7.010;2022-07-23T03:47:56;43.83;;;22.90;;
5273;SDS011;56254;50.956;7.010;2022-07-23T03:50:22;42.83;;;20.80;;
5273;SDS011;56254;50.956;7.010;2022-07-23T03:52:49;58.40;;;24.50;;
5273;SDS011;56254;50.956;7.010;2022-07-23T03:55:15;46.67;;;22.40;;
5273;SDS011;56254;50.956;7.010;2022-07-23T03:57:40;40.67;;;21.70;;
5273;SDS011;56254;50.956;7.010;2022-07-23T04:00:07;47.50;;;22.33;;
5273;SDS011;56254;50.956;7.010;2022-07-23T04:02:34;49.93;;;24.73;;
5273;SDS011;56254;50.956;7.010;2022-07-23T04:05:01;48.80;;;24.57;;
5273;SDS011;56254;50.956;7.010;2022-07-23T04:07:26;54.27;;;25.20;;
5273;SDS011;56254;50.956;7.010;2022-07-23T04:09:52;49.77;;;25.00;;
5273;SDS011;56254;50.956;7.010;2022-07-23T04:12:18;50.90;;;26.73;;
5273;SDS011;56254;50.956;7.010;2022-07-23T04:14:44;48.13;;;25.47;;
5273;SDS011;56254;50.956;7.010;2022-07-23T04:17:10;47.60;;;25.23;;
5273;SDS011;56254;50.956;7.010;2022-07-23T04:19:37;47.87;;;25.90;;
5273;SDS011;56254;50.956;7.010;2022-07-23T04:22:05;49.00;;;26.47;;
5273;SDS011;56254;50.956;7.010;2022-07-23T04:24:31;48.40;;;27.20;;
5273;SDS011;56254;50.956;7.010;2022-07-23T04:26:57;55.03;;;27.70;;
5273;SDS011;56254;50.956;7.010;2022-07-23T04:29:23;44.90;;;24.80;;
5273;SDS011;56254;50.956;7.010;2022-07-23T04:31:49;48.27;;;24.73;;
5273;SDS011;56254;50.956;7.010;2022-07-23T04:34:16;47.00;;;24.40;;
5273;SDS011;56254;50.956;7.010;2022-07-23T04:36:41;46.47;;;24.00;;
5273;SDS011;56254;50.956;7.010;2022-07-23T04:39:07;39.63;;;20.70;;
5273;SDS011;56254;50.956;7.010;2022-07-23T04:41:33;35.17;;;21.80;;
5273;SDS011;56254;50.956;7.010;2022-07-23T04:43:59;47.43;;;22.67;;
5273;SDS011;56254;50.956;7.010;2022-07-23T04:46:26;36.83;;;21.40;;
5273;SDS011;56254;50.956;7.010;2022-07-23T04:48:52;33.33;;;19.90;;
5273;SDS011;56254;50.956;7.010;2022-07-23T04:51:18;34.37;;;19.90;;
5273;SDS011;56254;50.956;7.010;2022-07-23T04:53:44;34.77;;;20.03;;
5273;SDS011;56254;50.956;7.010;2022-07-23T04:56:09;37.87;;;21.43;;
5273;SDS011;56254;50.956;7.010;2022-07-23T04:58:35;39.63;;;19.27;;
5273;SDS011;56254;50.956;7.010;2022-07-23T05:01:01;33.93;;;20.57;;
5273;SDS011;56254;50.956;7.010;2022-07-23T05:03:27;37.23;;;20.50;;
5273;SDS011;56254;50.956;7.010;2022-07-23T05:05:52;30.33;;;19.07;;
5273;SDS011;56254;50.956;7.010;2022-07-23T05:08:18;43.50;;;23.37;;
5273;SDS011;56254;50.956;7.010;2022-07-23T05:10:44;43.23;;;22.83;;
5273;SDS011;56254;50.956;7.010;2022-07-23T05:13:09;30.73;;;19.03;;
5273;SDS011;56254;50.956;7.010;2022-07-23T05:15:35;38.43;;;21.63;;
5273;SDS011;56254;50.956;7.010;2022-07-23T05:18:01;40.17;;;21.07;;
5273;SDS011;56254;50.956;7.010;2022-07-23T05:20:27;45.30;;;22.57;;
5273;SDS011;56254;50.956;7.010;2022-07-23T05:22:53;39.37;;;22.80;;
5273;SDS011;56254;50.956;7.010;2022-07-23T05:25:18;47.47;;;24.40;;
5273;SDS011;56254;50.956;7.010;2022-07-23T05:27:44;33.47;;;21.60;;
5273;SDS011;56254;50.956;7.010;2022-07-23T05:30:10;40.73;;;24.43;;
5273;SDS011;56254;50.956;7.010;2022-07-23T05:32:36;54.40;;;28.43;;
5273;SDS011;56254;50.956;7.010;2022-07-23T05:35:02;46.83;;;26.23;;
5273;SDS011;56254;50.956;7.010;2022-07-23T05:37:32;38.73;;;22.23;;
5273;SDS011;56254;50.956;7.010;2022-07-23T05:40:05;40.17;;;22.33;;
5273;SDS011;56254;50.956;7.010;2022-07-23T05:42:36;46.37;;;21.73;;
5273;SDS011;56254;50.956;7.010;2022-07-23T05:45:03;50.37;;;25.00;;
5273;SDS011;56254;50.956;7.010;2022-07-23T05:47:38;49.77;;;23.87;;
5273;SDS011;56254;50.956;7.010;2022-07-23T05:50:14;41.90;;;22.60;;
5273;SDS011;56254;50.956;7.010;2022-07-23T05:52:41;43.77;;;20.90;;
5273;SDS011;56254;50.956;7.010;2022-07-23T05:55:07;38.10;;;22.23;;
5273;SDS011;56254;50.956;7.010;2022-07-23T05:57:34;43.93;;;23.53;;
5273;SDS011;56254;50.956;7.010;2022-07-23T06:00:00;48.03;;;24.17;;
5273;SDS011;56254;50.956;7.010;2022-07-23T06:02:27;50.83;;;21.87;;
5273;SDS011;56254;50.956;7.010;2022-07-23T06:04:53;38.90;;;21.40;;
5273;SDS011;56254;50.956;7.010;2022-07-23T06:07:19;45.30;;;20.50;;
5273;SDS011;56254;50.956;7.010;2022-07-23T06:09:44;34.83;;;20.10;;
5273;SDS011;56254;50.956;7.010;2022-07-23T06:12:11;42.07;;;21.70;;
5273;SDS011;56254;50.956;7.010;2022-07-23T06:14:38;34.60;;;20.07;;
5273;SDS011;56254;50.956;7.010;2022-07-23T06:17:04;37.43;;;19.77;;
5273;SDS011;56254;50.956;7.010;2022-07-23T06:19:30;35.80;;;20.07;;
5273;SDS011;56254;50.956;7.010;2022-07-23T06:21:56;33.60;;;17.83;;
5273;SDS011;56254;50.956;7.010;2022-07-23T06:24:21;33.00;;;18.73;;
5273;SDS011;56254;50.956;7.010;2022-07-23T06:26:47;35.77;;;18.27;;
5273;SDS011;56254;50.956;7.010;2022-07-23T06:29:12;34.00;;;18.70;;
5273;SDS011;56254;50.956;7.010;2022-07-23T06:31:40;29.10;;;18.00;;
5273;SDS011;56254;50.956;7.010;2022-07-23T06:34:06;27.47;;;16.60;;
5273;SDS011;56254;50.956;7.010;2022-07-23T06:36:31;30.33;;;16.80;;
5273;SDS011;56254;50.956;7.010;2022-07-23T06:38:57;28.57;;;17.07;;
5273;SDS011;56254;50.956;7.010;2022-07-23T06:41:23;28.17;;;15.10;;
5273;SDS011;56254;50.956;7.010;2022-07-23T06:43:49;27.27;;;13.97;;
5273;SDS011;56254;50.956;7.010;2022-07-23T06:46:15;24.93;;;14.10;;
5273;SDS011;56254;50.956;7.010;2022-07-23T06:48:40;19.80;;;13.33;;
5273;SDS011;56254;50.956;7.010;2022-07-23T06:51:06;26.13;;;13.37;;
5273;SDS011;56254;50.956;7.010;2022-07-23T06:53:32;18.37;;;12.50;;
5273;SDS011;56254;50.956;7.010;2022-07-23T06:55:57;19.50;;;13.07;;
5273;SDS011;56254;50.956;7.010;2022-07-23T06:58:23;25.20;;;16.07;;
5273;SDS011;56254;50.956;7.010;2022-07-23T07:00:49;23.50;;;13.40;;
5273;SDS011;56254;50.956;7.010;2022-07-23T07:03:16;23.37;;;14.90;;
5273;SDS011;56254;50.956;7.010;2022-07-23T07:05:45;19.67;;;13.87;;
5273;SDS011;56254;50.956;7.010;2022-07-23T07:08:11;24.23;;;14.60;;
5273;SDS011;56254;50.956;7.010;2022-07-23T07:10:36;22.07;;;14.13;;
5273;SDS011;56254;50.956;7.010;2022-07-23T07:13:02;24.93;;;14.80;;
5273;SDS011;56254;50.956;7.010;2022-07-23T07:15:41;22.60;;;13.57;;
5273;SDS011;56254;50.956;7.010;2022-07-23T07:18:07;23.07;;;12.60;;
5273;SDS011;56254;50.956;7.010;2022-07-23T07:20:33;23.70;;;13.77;;
5273;SDS011;56254;50.956;7.010;2022-07-23T07:23:02;21.97;;;12.40;;
5273;SDS011;56254;50.956;7.010;2022-07-23T07:25:27;18.63;;;11.57;;
5273;SDS011;56254;50.956;7.010;2022-07-23T07:27:53;21.50;;;13.30;;
5273;SDS011;56254;50.956;7.010;2022-07-23T07:30:19;21.80;;;13.30;;
5273;SDS011;56254;50.956;7.010;2022-07-23T07:32:45;15.33;;;11.27;;
5273;SDS011;56254;50.956;7.010;2022-07-23T07:35:11;20.23;;;13.30;;
5273;SDS011;56254;50.956;7.010;2022-07-23T07:37:36;20.30;;;11.70;;
5273;SDS011;56254;50.956;7.010;2022-07-23T07:40:02;17.40;;;11.87;;
5273;SDS011;56254;50.956;7.010;2022-07-23T07:42:31;28.20;;;12.80;;
5273;SDS011;56254;50.956;7.010;2022-07-23T07:44:57;17.67;;;11.23;;
5273;SDS011;56254;50.956;7.010;2022-07-23T07:47:23;23.33;;;12.30;;
5273;SDS011;56254;50.956;7.010;2022-07-23T07:49:52;34.30;;;14.20;;
5273;SDS011;56254;50.956;7.010;2022-07-23T07:52:18;24.20;;;12.63;;
5273;SDS011;56254;50.956;7.010;2022-07-23T07:54:43;26.30;;;11.60;;
5273;SDS011;56254;50.956;7.010;2022-07-23T07:57:09;24.63;;;12.17;;
5273;SDS011;56254;50.956;7.010;2022-07-23T07:59:36;19.43;;;10.70;;
5273;SDS011;56254;50.956;7.010;2022-07-23T08:02:01;23.83;;;12.43;;
5273;SDS011;56254;50.956;7.010;2022-07-23T08:04:27;19.00;;;11.70;;
5273;SDS011;56254;50.956;7.010;2022-07-23T08:06:53;20.70;;;11.87;;
5273;SDS011;56254;50.956;7.010;2022-07-23T08:09:20;21.20;;;12.17;;
5273;SDS011;56254;50.956;7.010;2022-07-23T08:11:46;19.30;;;11.80;;
5273;SDS011;56254;50.956;7.010;2022-07-23T08:14:12;19.93;;;13.40;;
5273;SDS011;56254;50.956;7.010;2022-07-23T08:16:38;24.10;;;12.80;;
5273;SDS011;56254;50.956;7.010;2022-07-23T08:19:05;22.83;;;13.70;;
5273;SDS011;56254;50.956;7.010;2022-07-23T08:21:30;21.37;;;12.00;;
5273;SDS011;56254;50.956;7.010;2022-07-23T08:23:56;21.20;;;12.57;;
5273;SDS011;56254;50.956;7.010;2022-07-23T08:26:22;25.50;;;12.97;;
5273;SDS011;56254;50.956;7.010;2022-07-23T08:28:48;22.50;;;12.87;;
5273;SDS011;56254;50.956;7.010;2022-07-23T08:31:14;33.93;;;13.03;;
5273;SDS011;56254;50.956;7.010;2022-07-23T08:33:41;19.00;;;11.80;;
5273;SDS011;56254;50.956;7.010;2022-07-23T08:36:07;29.43;;;12.00;;
5273;SDS011;56254;50.956;7.010;2022-07-23T08:38:34;19.17;;;10.60;;
5273;SDS011;56254;50.956;7.010;2022-07-23T08:41:01;37.63;;;14.67;;
5273;SDS011;56254;50.956;7.010;2022-07-23T08:43:28;24.63;;;11.97;;
5273;SDS011;56254;50.956;7.010;2022-07-23T08:45:58;22.93;;;11.43;;
5273;SDS011;56254;50.956;7.010;2022-07-23T08:48:26;18.10;;;10.87;;
5273;SDS011;56254;50.956;7.010;2022-07-23T08:50:55;19.87;;;11.73;;
5273;SDS011;56254;50.956;7.010;2022-07-23T08:53:23;17.53;;;10.47;;
5273;SDS011;56254;50.956;7.010;2022-07-23T08:55:51;19.97;;;10.20;;
5273;SDS011;56254;50.956;7.010;2022-07-23T08:58:30;12.60;;;8.73;;
5273;SDS011;56254;50.956;7.010;2022-07-23T09:00:56;22.57;;;10.10;;
5273;SDS011;56254;50.956;7.010;2022-07-23T09:03:24;14.43;;;9.50;;
5273;SDS011;56254;50.956;7.010;2022-07-23T09:05:52;13.30;;;8.30;;
5273;SDS011;56254;50.956;7.010;2022-07-23T09:08:23;16.37;;;8.70;;
5273;SDS011;56254;50.956;7.010;2022-07-23T09:10:55;16.60;;;8.87;;
5273;SDS011;56254;50.956;7.010;2022-07-23T09:15:57;17.57;;;9.90;;
5273;SDS011;56254;50.956;7.010;2022-07-23T09:19:07;12.80;;;8.50;;
5273;SDS011;56254;50.956;7.010;2022-07-23T09:21:20;14.90;;;9.47;;
5273;SDS011;56254;50.956;7.010;2022-07-23T09:24:00;14.53;;;9.47;;
5273;SDS011;56254;50.956;7.010;2022-07-23T09:26:37;19.27;;;10.67;;
5273;SDS011;56254;50.956;7.010;2022-07-23T09:31:48;11.33;;;8.60;;
5273;SDS011;56254;50.956;7.010;2022-07-23T09:36:53;21.67;;;12.03;;
5273;SDS011;56254;50.956;7.010;2022-07-23T09:39:31;17.40;;;10.90;;
5273;SDS011;56254;50.956;7.010;2022-07-23T09:42:12;20.03;;;12.27;;
5273;SDS011;56254;50.956;7.010;2022-07-23T09:44:41;17.77;;;12.40;;
5273;SDS011;56254;50.956;7.010;2022-07-23T09:47:08;17.43;;;11.07;;
5273;SDS011;56254;50.956;7.010;2022-07-23T09:49:34;20.60;;;11.73;;
5273;SDS011;56254;50.956;7.010;2022-07-23T09:52:00;26.17;;;14.00;;
5273;SDS011;56254;50.956;7.010;2022-07-23T09:57:10;18.80;;;12.03;;
5273;SDS011;56254;50.956;7.010;2022-07-23T09:59:42;20.83;;;11.70;;
5273;SDS011;56254;50.956;7.010;2022-07-23T10:02:11;17.60;;;10.23;;
5273;SDS011;56254;50.956;7.010;2022-07-23T10:04:38;20.37;;;13.40;;
5273;SDS011;56254;50.956;7.010;2022-07-23T10:07:06;24.47;;;11.90;;
5273;SDS011;56254;50.956;7.010;2022-07-23T10:09:34;22.17;;;13.40;;
5273;SDS011;56254;50.956;7.010;2022-07-23T10:12:03;24.43;;;12.80;;
5273;SDS011;56254;50.956;7.010;2022-07-23T10:14:33;21.93;;;12.90;;
5273;SDS011;56254;50.956;7.010;2022-07-23T10:17:02;14.90;;;10.67;;
5273;SDS011;56254;50.956;7.010;2022-07-23T10:19:38;16.70;;;10.03;;
5273;SDS011;56254;50.956;7.010;2022-07-23T10:24:45;18.40;;;11.00;;
5273;SDS011;56254;50.956;7.010;2022-07-23T10:30:13;14.60;;;9.50;;
5273;SDS011;56254;50.956;7.010;2022-07-23T10:32:45;14.27;;;10.80;;
5273;SDS011;56254;50.956;7.010;2022-07-23T10:35:37;21.90;;;10.70;;
5273;SDS011;56254;50.956;7.010;2022-07-23T10:38:13;19.00;;;11.20;;
5273;SDS011;56254;50.956;7.010;2022-07-23T10:40:58;13.83;;;8.20;;
5273;SDS011;56254;50.956;7.010;2022-07-23T10:43:25;10.90;;;7.47;;
5273;SDS011;56254;50.956;7.010;2022-07-23T10:45:52;14.17;;;7.97;;
5273;SDS011;56254;50.956;7.010;2022-07-23T10:48:21;12.73;;;7.70;;
5273;SDS011;56254;50.956;7.010;2022-07-23T10:53:53;12.60;;;8.13;;
5273;SDS011;56254;50.956;7.010;2022-07-23T10:59:23;13.90;;;6.67;;
5273;SDS011;56254;50.956;7.010;2022-07-23T11:01:49;16.33;;;7.93;;
5273;SDS011;56254;50.956;7.010;2022-07-23T11:04:15;17.17;;;9.43;;
5273;SDS011;56254;50.956;7.010;2022-07-23T11:09:29;13.53;;;8.30;;
5273;SDS011;56254;50.956;7.010;2022-07-23T11:12:36;17.67;;;7.67;;
5273;SDS011;56254;50.956;7.010;2022-07-23T11:15:14;11.00;;;6.73;;
5273;SDS011;56254;50.956;7.010;2022-07-23T11:22:37;13.33;;;7.67;;
5273;SDS011;56254;50.956;7.010;2022-07-23T11:25:09;13.60;;;6.57;;
5273;SDS011;56254;50.956;7.010;2022-07-23T11:27:45;11.67;;;8.07;;
5273;SDS011;56254;50.956;7.010;2022-07-23T11:32:54;17.63;;;8.83;;
5273;SDS011;56254;50.956;7.010;2022-07-23T11:35:44;11.77;;;8.07;;
5273;SDS011;56254;50.956;7.010;2022-07-23T11:38:23;12.03;;;8.30;;
5273;SDS011;56254;50.956;7.010;2022-07-23T11:40:50;9.20;;;7.43;;
5273;SDS011;56254;50.956;7.010;2022-07-23T11:43:19;9.20;;;7.00;;
5273;SDS011;56254;50.956;7.010;2022-07-23T11:45:47;7.90;;;6.00;;
5273;SDS011;56254;50.956;7.010;2022-07-23T11:48:17;9.30;;;6.27;;
5273;SDS011;56254;50.956;7.010;2022-07-23T11:50:42;12.10;;;8.03;;
5273;SDS011;56254;50.956;7.010;2022-07-23T11:53:08;18.20;;;8.23;;
5273;SDS011;56254;50.956;7.010;2022-07-23T11:55:34;11.80;;;9.33;;
5273;SDS011;56254;50.956;7.010;2022-07-23T11:58:00;11.57;;;8.57;;
5273;SDS011;56254;50.956;7.010;2022-07-23T12:00:29;12.60;;;8.60;;
5273;SDS011;56254;50.956;7.010;2022-07-23T12:02:56;7.83;;;6.70;;
5273;SDS011;56254;50.956;7.010;2022-07-23T12:05:26;14.73;;;8.03;;
5273;SDS011;56254;50.956;7.010;2022-07-23T12:07:56;14.80;;;7.20;;
5273;SDS011;56254;50.956;7.010;2022-07-23T12:10:24;9.13;;;6.60;;
5273;SDS011;56254;50.956;7.010;2022-07-23T12:12:56;10.47;;;6.83;;
5273;SDS011;56254;50.956;7.010;2022-07-23T12:15:32;9.73;;;7.07;;
5273;SDS011;56254;50.956;7.010;2022-07-23T12:18:02;10.60;;;7.60;;
5273;SDS011;56254;50.956;7.010;2022-07-23T12:20:39;9.57;;;7.60;;
5273;SDS011;56254;50.956;7.010;2022-07-23T12:23:09;8.73;;;6.87;;
5273;SDS011;56254;50.956;7.010;2022-07-23T12:25:40;14.10;;;8.90;;
5273;SDS011;56254;50.956;7.010;2022-07-23T12:28:09;13.43;;;9.87;;
5273;SDS011;56254;50.956;7.010;2022-07-23T12:30:43;9.83;;;7.73;;
5273;SDS011;56254;50.956;7.010;2022-07-23T12:33:13;12.10;;;8.37;;
5273;SDS011;56254;50.956;7.010;2022-07-23T12:35:46;12.07;;;7.60;;
5273;SDS011;56254;50.956;7.010;2022-07-23T12:38:20;12.43;;;8.30;;
5273;SDS011;56254;50.956;7.010;2022-07-23T12:43:35;11.43;;;7.40;;
5273;SDS011;56254;50.956;7.010;2022-07-23T12:46:13;11.30;;;6.70;;
5273;SDS011;56254;50.956;7.010;2022-07-23T12:51:21;15.77;;;8.40;;
5273;SDS011;56254;50.956;7.010;2022-07-23T12:53:58;8.00;;;6.37;;
5273;SDS011;56254;50.956;7.010;2022-07-23T12:56:36;8.00;;;6.80;;
5273;SDS011;56254;50.956;7.010;2022-07-23T13:01:29;7.57;;;6.53;;
5273;SDS011;56254;50.956;7.010;2022-07-23T13:09:23;5.40;;;4.60;;
5273;SDS011;56254;50.956;7.010;2022-07-23T13:11:52;8.10;;;4.90;;
5273;SDS011;56254;50.956;7.010;2022-07-23T13:14:20;13.30;;;5.00;;
5273;SDS011;56254;50.956;7.010;2022-07-23T13:16:46;7.80;;;4.70;;
5273;SDS011;56254;50.956;7.010;2022-07-23T13:19:13;9.23;;;5.50;;
5273;SDS011;56254;50.956;7.010;2022-07-23T13:21:40;9.23;;;5.30;;
5273;SDS011;56254;50.956;7.010;2022-07-23T13:24:13;5.30;;;4.77;;
5273;SDS011;56254;50.956;7.010;2022-07-23T13:26:39;10.50;;;6.60;;
5273;SDS011;56254;50.956;7.010;2022-07-23T13:29:06;13.73;;;5.50;;
5273;SDS011;56254;50.956;7.010;2022-07-23T13:31:32;8.43;;;5.20;;
5273;SDS011;56254;50.956;7.010;2022-07-23T13:33:58;5.80;;;5.03;;
5273;SDS011;56254;50.956;7.010;2022-07-23T13:36:24;6.80;;;4.63;;
5273;SDS011;56254;50.956;7.010;2022-07-23T13:38:51;9.43;;;5.60;;
5273;SDS011;56254;50.956;7.010;2022-07-23T13:41:17;7.23;;;5.67;;
5273;SDS011;56254;50.956;7.010;2022-07-23T13:43:43;5.50;;;4.70;;
5273;SDS011;56254;50.956;7.010;2022-07-23T13:46:09;6.93;;;4.37;;
5273;SDS011;56254;50.956;7.010;2022-07-23T13:48:35;9.10;;;5.10;;
5273;SDS011;56254;50.956;7.010;2022-07-23T13:51:00;7.97;;;5.03;;
5273;SDS011;56254;50.956;7.010;2022-07-23T13:53:26;10.80;;;5.70;;
5273;SDS011;56254;50.956;7.010;2022-07-23T13:55:52;7.30;;;4.57;;
5273;SDS011;56254;50.956;7.010;2022-07-23T13:58:19;6.83;;;5.53;;
5273;SDS011;56254;50.956;7.010;2022-07-23T14:00:50;6.40;;;4.60;;
5273;SDS011;56254;50.956;7.010;2022-07-23T14:03:17;5.70;;;4.20;;
5273;SDS011;56254;50.956;7.010;2022-07-23T14:05:44;7.10;;;4.80;;
5273;SDS011;56254;50.956;7.010;2022-07-23T14:08:10;5.87;;;4.63;;
5273;SDS011;56254;50.956;7.010;2022-07-23T14:10:36;7.00;;;4.13;;
5273;SDS011;56254;50.956;7.010;2022-07-23T14:13:01;5.27;;;4.20;;
5273;SDS011;56254;50.956;7.010;2022-07-23T14:15:34;6.10;;;4.07;;
5273;SDS011;56254;50.956;7.010;2022-07-23T14:17:59;5.50;;;3.80;;
5273;SDS011;56254;50.956;7.010;2022-07-23T14:20:25;10.53;;;3.90;;
5273;SDS011;56254;50.956;7.010;2022-07-23T14:22:51;8.20;;;3.80;;
5273;SDS011;56254;50.956;7.010;2022-07-23T14:25:17;4.80;;;3.20;;
5273;SDS011;56254;50.956;7.010;2022-07-23T14:27:43;3.07;;;2.87;;
5273;SDS011;56254;50.956;7.010;2022-07-23T14:30:10;3.30;;;3.10;;
5273;SDS011;56254;50.956;7.010;2022-07-23T14:32:36;8.17;;;3.20;;
5273;SDS011;56254;50.956;7.010;2022-07-23T14:35:02;3.20;;;3.00;;
5273;SDS011;56254;50.956;7.010;2022-07-23T14:37:28;5.10;;;3.43;;
5273;SDS011;56254;50.956;7.010;2022-07-23T14:39:54;3.00;;;2.80;;
5273;SDS011;56254;50.956;7.010;2022-07-23T14:42:20;6.53;;;3.73;;
5273;SDS011;56254;50.956;7.010;2022-07-23T14:44:45;6.60;;;3.77;;
5273;SDS011;56254;50.956;7.010;2022-07-23T14:47:11;8.30;;;2.73;;
5273;SDS011;56254;50.956;7.010;2022-07-23T14:49:37;9.13;;;4.73;;
5273;SDS011;56254;50.956;7.010;2022-07-23T14:52:03;10.83;;;4.87;;
5273;SDS011;56254;50.956;7.010;2022-07-23T14:54:30;6.00;;;3.30;;
5273;SDS011;56254;50.956;7.010;2022-07-23T14:56:56;5.10;;;4.10;;
5273;SDS011;56254;50.956;7.010;2022-07-23T14:59:24;6.27;;;4.20;;
5273;SDS011;56254;50.956;7.010;2022-07-23T15:01:50;4.30;;;3.23;;
5273;SDS011;56254;50.956;7.010;2022-07-23T15:04:16;6.37;;;3.40;;
5273;SDS011;56254;50.956;7.010;2022-07-23T15:06:42;5.73;;;3.40;;
5273;SDS011;56254;50.956;7.010;2022-07-23T15:09:08;5.00;;;3.30;;
5273;SDS011;56254;50.956;7.010;2022-07-23T15:11:34;3.80;;;3.00;;
5273;SDS011;56254;50.956;7.010;2022-07-23T15:14:01;6.97;;;3.80;;
5273;SDS011;56254;50.956;7.010;2022-07-23T15:16:28;9.80;;;4.50;;
5273;SDS011;56254;50.956;7.010;2022-07-23T15:18:54;7.43;;;3.80;;
5273;SDS011;56254;50.956;7.010;2022-07-23T15:21:19;7.50;;;2.80;;
5273;SDS011;56254;50.956;7.010;2022-07-23T15:23:45;5.20;;;3.23;;
5273;SDS011;56254;50.956;7.010;2022-07-23T15:26:11;4.90;;;3.40;;
5273;SDS011;56254;50.956;7.010;2022-07-23T15:28:39;3.90;;;2.77;;
5273;SDS011;56254;50.956;7.010;2022-07-23T15:31:05;6.90;;;3.70;;